createdAt,value
2023-04-02T00:01:53.342Z,14144.20
2023-04-02T00:07:17.311Z,14156.71
2023-04-02T00:12:26.735Z,14155.00
2023-04-02T00:17:33.290Z,14133.51
2023-04-02T00:22:37.078Z,14132.02
2023-04-02T00:27:42.018Z,14149.38
2023-04-02T00:32:47.614Z,14162.54
2023-04-02T00:37:53.168Z,14215.03
2023-04-02T00:43:01.254Z,14225.65
2023-04-02T00:48:21.372Z,14193.51
2023-04-02T00:53:29.733Z,14225.19
2023-04-02T00:58:36.712Z,14207.74
2023-04-02T01:03:40.179Z,14190.49
2023-04-02T01:08:56.343Z,14227.84
2023-04-02T01:14:07.952Z,14226.53
2023-04-02T01:19:29.707Z,14257.07
2023-04-02T01:24:35.268Z,14233.20
2023-04-02T01:29:46.183Z,14279.16
2023-04-02T01:34:51.606Z,14260.59
2023-04-02T01:40:06.020Z,14215.45
2023-04-02T01:45:12.323Z,14131.74
2023-04-02T01:50:23.756Z,14091.22
2023-04-02T01:55:34.343Z,14119.24
2023-04-02T02:00:43.320Z,14085.48
2023-04-02T02:05:47.525Z,14091.64
2023-04-02T02:10:54.336Z,14081.24
2023-04-02T02:16:05.626Z,14084.42
2023-04-02T02:21:11.565Z,13983.97
2023-04-02T02:26:16.364Z,14012.56
2023-04-02T02:31:28.097Z,14073.83
2023-04-02T02:36:38.082Z,14135.54
2023-04-02T02:41:46.674Z,14075.59
2023-04-02T02:46:54.790Z,14107.45
2023-04-02T02:52:01.733Z,14146.73
2023-04-02T02:57:16.158Z,14129.96
2023-04-02T03:02:25.270Z,14126.00
2023-04-02T03:07:31.161Z,14164.02
2023-04-02T03:12:42.238Z,14127.42
2023-04-02T03:17:58.358Z,14134.50
2023-04-02T03:23:06.832Z,14147.55
2023-04-02T03:28:15.517Z,14224.03
2023-04-02T03:33:23.155Z,14200.71
2023-04-02T03:38:34.323Z,14259.02
2023-04-02T03:43:41.993Z,14229.25
2023-04-02T03:48:52.417Z,14206.43
2023-04-02T03:53:57.243Z,14271.62
2023-04-02T03:59:07.838Z,14258.67
2023-04-02T04:04:16.151Z,14306.91
2023-04-02T04:09:23.530Z,14307.55
2023-04-02T04:14:32.261Z,14310.79
2023-04-02T04:19:45.395Z,14333.67
2023-04-02T04:24:50.796Z,14246.77
2023-04-02T04:30:03.944Z,14233.84
2023-04-02T04:35:20.042Z,14210.65
2023-04-02T04:40:30.615Z,14252.77
2023-04-02T04:45:42.936Z,14261.88
2023-04-02T04:50:52.763Z,14301.45
2023-04-02T04:56:12.508Z,14262.93
2023-04-02T05:01:26.816Z,14269.67
2023-04-02T05:06:39.156Z,14237.77
2023-04-02T05:11:47.169Z,14236.53
2023-04-02T05:16:57.350Z,14311.04
2023-04-02T05:22:14.902Z,14311.56
2023-04-02T05:27:27.548Z,14189.37
2023-04-02T05:32:37.745Z,14218.68
2023-04-02T05:37:43.483Z,14215.69
2023-04-02T05:42:51.181Z,14028.34
2023-04-02T05:48:01.685Z,13997.17
2023-04-02T05:53:18.222Z,14026.81
2023-04-02T06:03:46.196Z,14140.23
2023-04-02T06:08:58.935Z,14183.14
2023-04-02T06:14:04.662Z,14157.17
2023-04-02T06:19:14.710Z,14159.15
2023-04-02T06:24:26.502Z,13896.74
2023-04-02T06:29:38.473Z,14000.10
2023-04-02T06:34:43.747Z,14100.79
2023-04-02T06:39:52.216Z,14069.08
2023-04-02T06:44:56.661Z,14069.33
2023-04-02T06:50:24.452Z,13997.95
2023-04-02T06:55:34.070Z,14084.46
2023-04-02T07:00:42.431Z,14104.52
2023-04-02T07:05:52.375Z,14180.90
2023-04-02T07:10:59.768Z,14157.96
2023-04-02T07:16:06.495Z,14139.25
2023-04-02T07:21:10.994Z,14115.88
2023-04-02T07:26:17.577Z,14145.51
2023-04-02T07:31:24.760Z,14102.85
2023-04-02T07:36:30.869Z,14105.30
2023-04-02T07:41:51.339Z,14190.89
2023-04-02T07:46:54.952Z,14159.03
2023-04-02T07:51:58.366Z,14136.33
2023-04-02T07:57:03.189Z,14170.90
2023-04-02T08:02:07.023Z,14093.15
2023-04-02T08:07:10.493Z,14168.15
2023-04-02T08:12:15.686Z,14080.01
2023-04-02T08:17:19.107Z,14010.76
2023-04-02T08:22:24.600Z,14151.05
2023-04-02T08:27:31.658Z,14097.54
2023-04-02T08:32:35.103Z,14101.72
2023-04-02T08:37:38.609Z,14097.41
2023-04-02T08:42:49.535Z,14057.55
2023-04-02T08:47:56.670Z,13976.99
2023-04-02T08:53:04.372Z,13998.08
2023-04-02T08:58:16.160Z,14038.35
2023-04-02T09:03:20.961Z,14092.75
2023-04-02T09:08:28.302Z,14065.52
2023-04-02T09:13:38.947Z,14049.85
2023-04-02T09:18:48.255Z,14153.44
2023-04-02T09:23:53.789Z,14172.35
2023-04-02T09:29:03.675Z,14153.51
2023-04-02T09:34:21.947Z,14195.42
2023-04-02T09:39:26.996Z,14249.82
2023-04-02T09:44:32.042Z,14192.08
2023-04-02T09:49:40.042Z,14220.72
2023-04-02T09:54:43.470Z,14233.12
2023-04-02T10:00:10.432Z,14174.48
2023-04-02T10:05:39.405Z,14199.14
2023-04-02T10:10:50.816Z,14164.17
2023-04-02T10:16:01.037Z,14206.91
2023-04-02T10:21:11.261Z,14229.95
2023-04-02T10:26:27.433Z,14236.53
2023-04-02T10:31:38.942Z,14309.47
2023-04-02T10:36:50.664Z,14338.51
2023-04-02T10:42:00.208Z,14374.11
2023-04-02T10:47:10.462Z,14340.78
2023-04-02T10:52:19.763Z,14293.59
2023-04-02T10:57:36.419Z,14350.83
2023-04-02T11:02:47.174Z,14352.33
2023-04-02T11:07:55.880Z,14377.87
2023-04-02T11:13:08.560Z,14390.18
2023-04-02T11:18:27.467Z,14376.95
2023-04-02T11:23:33.780Z,14373.65
2023-04-02T11:28:37.245Z,14405.77
2023-04-02T11:33:46.005Z,14426.08
2023-04-02T11:38:52.949Z,14458.98
2023-04-02T11:44:02.745Z,14420.89
2023-04-02T11:49:27.017Z,14416.42
2023-04-02T11:54:38.362Z,14453.41
2023-04-02T11:59:49.950Z,14494.37
2023-04-02T12:05:05.359Z,14536.72
2023-04-02T12:10:19.061Z,14535.39
2023-04-02T12:15:33.368Z,14469.97
2023-04-02T12:20:39.313Z,14510.43
2023-04-02T12:25:54.341Z,14488.07
2023-04-02T12:31:06.064Z,14416.91
2023-04-02T12:36:20.332Z,14497.56
2023-04-02T12:41:30.375Z,14231.90
2023-04-02T12:46:35.715Z,14139.49
2023-04-02T12:51:41.906Z,14111.07
2023-04-02T12:56:46.774Z,14126.26
2023-04-02T13:01:57.180Z,14248.52
2023-04-02T13:07:03.022Z,14326.65
2023-04-02T13:12:25.422Z,14372.21
2023-04-02T13:17:38.641Z,14210.46
2023-04-02T13:22:42.181Z,14162.21
2023-04-02T13:27:47.008Z,14177.22
2023-04-02T13:32:50.510Z,14158.94
2023-04-02T13:37:56.271Z,14204.95
2023-04-02T13:43:02.835Z,14284.83
2023-04-02T13:48:07.406Z,14314.89
2023-04-02T13:53:22.084Z,14311.71
2023-04-02T13:58:29.190Z,14284.64
2023-04-02T14:03:35.688Z,14420.45
2023-04-02T14:08:49.118Z,14429.15
2023-04-02T14:14:07.577Z,14424.56
2023-04-02T14:19:21.093Z,14483.27
2023-04-02T14:24:32.691Z,14478.29
2023-04-02T14:29:47.349Z,14500.84
2023-04-02T14:34:57.741Z,14462.73
2023-04-02T14:40:08.892Z,14505.90
2023-04-02T14:45:21.358Z,14497.00
2023-04-02T14:50:29.557Z,14509.68
2023-04-02T14:55:37.994Z,14558.64
2023-04-02T15:00:45.826Z,14559.29
2023-04-02T15:05:56.626Z,14511.88
2023-04-02T15:11:07.888Z,14552.06
2023-04-02T15:16:19.203Z,14495.74
2023-04-02T15:21:43.414Z,14451.39
2023-04-02T15:27:01.419Z,14289.04
2023-04-02T15:32:23.935Z,14394.66
2023-04-02T15:37:34.548Z,14461.82
2023-04-02T15:42:44.228Z,14390.10
2023-04-02T15:48:02.702Z,14408.35
2023-04-02T15:53:17.974Z,14490.69
2023-04-02T15:58:35.627Z,14517.23
2023-04-02T16:03:55.926Z,14455.63
2023-04-02T16:09:08.559Z,14470.85
2023-04-02T16:14:17.917Z,14481.22
2023-04-02T16:19:27.489Z,14511.59
2023-04-02T16:24:30.870Z,14536.63
2023-04-02T16:35:31.054Z,14569.85
2023-04-02T16:40:38.076Z,14558.25
2023-04-02T16:45:52.276Z,14572.45
2023-04-02T16:51:10.904Z,14550.46
2023-04-02T16:56:23.555Z,14476.49
2023-04-02T17:01:35.324Z,14514.98
2023-04-02T17:06:43.518Z,14590.67
2023-04-02T17:11:50.502Z,14565.92
2023-04-02T17:16:59.539Z,14577.74
2023-04-02T17:22:07.753Z,14644.10
2023-04-02T17:27:22.968Z,14648.33
2023-04-02T17:32:29.817Z,14435.79
2023-04-02T17:37:41.563Z,14455.54
2023-04-02T17:42:58.390Z,14548.48
2023-04-02T17:48:05.542Z,14555.61
2023-04-02T17:53:21.780Z,14539.71
2023-04-02T17:58:44.050Z,14531.25
2023-04-02T18:03:52.168Z,14538.46
2023-04-02T18:09:05.918Z,14556.88
2023-04-02T18:14:27.861Z,14530.09
2023-04-02T18:19:40.698Z,14512.87
2023-04-02T18:24:59.201Z,14493.51
2023-04-02T18:30:15.671Z,14591.19
2023-04-02T18:35:26.762Z,14602.57
2023-04-02T18:40:43.403Z,14656.05
2023-04-02T18:45:56.249Z,14581.31
2023-04-02T18:51:03.971Z,14640.67
2023-04-02T18:56:13.938Z,14647.42
2023-04-02T19:01:22.306Z,14712.20
2023-04-02T19:06:31.493Z,14757.18
2023-04-02T19:11:38.751Z,14736.57
2023-04-02T19:16:55.850Z,14721.27
2023-04-02T19:22:12.693Z,14694.12
2023-04-02T19:27:27.260Z,14614.34
2023-04-02T19:32:36.637Z,14707.44
2023-04-02T19:37:42.495Z,14712.28
2023-04-02T19:42:49.933Z,14701.57
2023-04-02T19:47:57.921Z,14730.93
2023-04-02T19:53:01.299Z,14668.13
2023-04-02T19:58:18.723Z,14688.21
2023-04-02T20:03:23.657Z,14732.71
2023-04-02T20:08:27.190Z,14754.57
2023-04-02T20:13:32.265Z,14828.87
2023-04-02T20:18:37.145Z,14815.37
2023-04-02T20:23:46.116Z,14858.69
2023-04-02T20:28:50.962Z,14869.61
2023-04-02T20:33:57.509Z,14858.92
2023-04-02T20:39:03.621Z,14866.33
2023-04-02T20:44:08.504Z,14873.68
2023-04-02T20:49:12.099Z,14868.87
2023-04-02T20:54:15.492Z,14846.74
2023-04-02T20:59:20.370Z,14822.90
2023-04-02T21:04:28.325Z,14852.04
2023-04-02T21:09:32.155Z,14899.49
2023-04-02T21:14:39.130Z,14872.97
2023-04-02T21:19:42.613Z,14838.42
2023-04-02T21:24:45.980Z,14839.80
2023-04-02T21:29:53.488Z,14848.44
2023-04-02T21:34:56.891Z,14821.59
2023-04-02T21:40:02.681Z,14777.40
2023-04-02T21:45:08.158Z,14784.05
2023-04-02T21:50:14.558Z,14842.78
2023-04-02T21:55:21.055Z,14819.74
2023-04-02T22:00:28.344Z,14851.17
2023-04-02T22:05:31.776Z,14744.36
2023-04-02T22:10:37.712Z,14624.59
2023-04-02T22:15:42.658Z,14587.50
2023-04-02T22:20:46.191Z,14621.59
2023-04-02T22:25:49.852Z,14654.01
2023-04-02T22:30:55.451Z,14683.71
2023-04-02T22:35:59.521Z,14708.38
2023-04-02T22:41:04.496Z,14722.94
2023-04-02T22:46:10.171Z,14737.52
2023-04-02T22:51:16.029Z,14701.02
2023-04-02T22:56:21.709Z,14601.22
2023-04-02T23:01:27.815Z,14699.88
2023-04-02T23:06:32.091Z,14729.18
2023-04-02T23:11:35.656Z,14784.40
2023-04-02T23:16:40.439Z,14789.33
2023-04-02T23:21:44.008Z,14835.67
2023-04-02T23:26:47.392Z,14806.69
2023-04-02T23:31:52.229Z,14773.35
2023-04-02T23:36:55.608Z,14742.99
2023-04-02T23:42:00.745Z,14976.96
2023-04-02T23:47:05.856Z,14986.57
2023-04-02T23:52:09.454Z,15006.70
2023-04-02T23:57:12.853Z,15000.36
